Back to Top

Language: 

My Weather Underground Personal Weather Station Historical Data with Graphs...

Delerius Weather Station Historical Data
Daily Summary for July 4, 2017 Units:  English    Metric   Both
« Previous Day
Next Day »
Daily Weekly Monthly Yearly Custom
  High: Low: Average:
Temperature: 69.6 °F 54.1 °F 61 °F
Dew Point: 59.0 °F 46.8 °F 53.4 °F
Humidity: 85 % 64 % 76 %
Wind Speed: 12.0 mph 0.0 mph 3.9 mph
Wind Gust: 20.0 mph - -
Wind:- - WSW
Pressure: 30.14 in 30.03 in -
Precipitation: 0.00 in    
Historical Graphs
 
 
Tabular Data for July 4, 2017
Time Temperature Dew Point Pressure Wind Wind Speed Wind Gust Humidity Rainfall Rate (Hourly) solar Conditions
00:03 57.0 °F 46.9 °F 30.14 in WNW 3.0 mph 7.0 mph 69 % 0.00 in 0 W/m2
00:08 57.0 °F 46.9 °F 30.14 in WNW 2.0 mph 6.0 mph 69 % 0.00 in 0 W/m2
00:13 57.0 °F 46.9 °F 30.14 in WNW 1.0 mph 5.0 mph 69 % 0.00 in 0 W/m2
00:18 57.0 °F 46.9 °F 30.14 in WNW 2.0 mph 5.0 mph 69 % 0.00 in 0 W/m2
00:23 56.8 °F 46.8 °F 30.14 in WNW 2.0 mph 6.0 mph 69 % 0.00 in 0 W/m2
00:28 56.8 °F 46.8 °F 30.13 in WNW 2.0 mph 6.0 mph 69 % 0.00 in 0 W/m2
00:33 56.8 °F 47.5 °F 30.14 in WNW 1.0 mph 5.0 mph 71 % 0.00 in 0 W/m2
00:38 56.7 °F 47.7 °F 30.13 in Calm   1.0 mph 72 % 0.00 in 0 W/m2
00:43 56.5 °F 47.6 °F 30.13 in Calm   4.0 mph 72 % 0.00 in 0 W/m2
00:48 56.3 °F 47.4 °F 30.13 in WNW 1.0 mph 5.0 mph 72 % 0.00 in 0 W/m2
00:53 56.1 °F 47.6 °F 30.13 in WNW 1.0 mph 5.0 mph 73 % 0.00 in 0 W/m2
00:58 55.9 °F 47.4 °F 30.13 in Calm   2.0 mph 73 % 0.00 in 0 W/m2
01:04 55.8 °F 47.6 °F 30.13 in Calm   1.0 mph 74 % 0.00 in 0 W/m2
01:09 55.6 °F 47.4 °F 30.13 in Calm     74 % 0.00 in 0 W/m2
01:14 55.2 °F 47.1 °F 30.13 in Calm     74 % 0.00 in 0 W/m2
01:19 55.0 °F 46.9 °F 30.13 in Calm   1.0 mph 74 % 0.00 in 0 W/m2
01:24 54.9 °F 47.1 °F 30.13 in Calm   1.0 mph 75 % 0.00 in 0 W/m2
01:29 54.7 °F 46.9 °F 30.13 in Calm   1.0 mph 75 % 0.00 in 0 W/m2
01:34 54.7 °F 47.3 °F 30.13 in Calm   4.0 mph 76 % 0.00 in 0 W/m2
01:39 54.5 °F 47.8 °F 30.13 in WNW 1.0 mph 4.0 mph 78 % 0.00 in 0 W/m2
01:44 54.3 °F 47.6 °F 30.13 in Calm   3.0 mph 78 % 0.00 in 0 W/m2
01:49 54.1 °F 47.8 °F 30.13 in Calm     79 % 0.00 in 0 W/m2
01:54 54.1 °F 47.8 °F 30.13 in Calm     79 % 0.00 in 0 W/m2
01:59 54.1 °F 47.8 °F 30.12 in Calm     79 % 0.00 in 0 W/m2
02:04 54.1 °F 47.4 °F 30.12 in Calm     78 % 0.00 in 0 W/m2
02:09 54.1 °F 47.4 °F 30.12 in Calm     78 % 0.00 in 0 W/m2
02:14 54.1 °F 47.4 °F 30.12 in Calm   1.0 mph 78 % 0.00 in 0 W/m2
02:19 54.1 °F 47.4 °F 30.12 in Calm   1.0 mph 78 % 0.00 in 0 W/m2
02:24 54.1 °F 47.4 °F 30.12 in Calm   1.0 mph 78 % 0.00 in 0 W/m2
02:29 54.1 °F 47.4 °F 30.12 in Calm   1.0 mph 78 % 0.00 in 0 W/m2
02:34 54.1 °F 47.1 °F 30.12 in Calm     77 % 0.00 in 0 W/m2
02:39 54.3 °F 47.3 °F 30.12 in Calm   1.0 mph 77 % 0.00 in 0 W/m2
02:44 54.3 °F 47.3 °F 30.12 in Calm   4.0 mph 77 % 0.00 in 0 W/m2
02:49 54.3 °F 47.3 °F 30.12 in Calm   4.0 mph 77 % 0.00 in 0 W/m2
02:54 54.3 °F 46.9 °F 30.12 in Calm   2.0 mph 76 % 0.00 in 0 W/m2
02:59 54.5 °F 47.1 °F 30.11 in Calm   2.0 mph 76 % 0.00 in 0 W/m2
03:04 54.5 °F 47.1 °F 30.11 in Calm     76 % 0.00 in 0 W/m2
03:09 54.7 °F 47.3 °F 30.11 in Calm   2.0 mph 76 % 0.00 in 0 W/m2
03:14 54.7 °F 47.3 °F 30.11 in Calm   2.0 mph 76 % 0.00 in 0 W/m2
03:19 54.9 °F 48.5 °F 30.11 in Calm   2.0 mph 79 % 0.00 in 0 W/m2
03:24 55.0 °F 49.0 °F 30.11 in Calm   2.0 mph 80 % 0.00 in 0 W/m2
03:29 54.9 °F 48.8 °F 30.11 in Calm     80 % 0.00 in 0 W/m2
03:34 54.7 °F 48.6 °F 30.11 in Calm     80 % 0.00 in 0 W/m2
03:39 54.7 °F 48.3 °F 30.11 in Calm     79 % 0.00 in 0 W/m2
03:44 54.7 °F 48.6 °F 30.11 in Calm     80 % 0.00 in 0 W/m2
03:49 54.5 °F 48.1 °F 30.11 in Calm     79 % 0.00 in 0 W/m2
03:54 54.5 °F 48.1 °F 30.11 in Calm     79 % 0.00 in 0 W/m2
03:59 54.3 °F 47.9 °F 30.11 in Calm     79 % 0.00 in 0 W/m2
04:04 54.3 °F 47.9 °F 30.11 in Calm     79 % 0.00 in 0 W/m2
04:10 54.3 °F 47.6 °F 30.11 in Calm     78 % 0.00 in 0 W/m2
04:15 54.3 °F 47.6 °F 30.11 in Calm     78 % 0.00 in 0 W/m2
04:20 54.5 °F 48.1 °F 30.11 in Calm     79 % 0.00 in 0 W/m2
04:25 54.7 °F 48.3 °F 30.11 in Calm     79 % 0.00 in 0 W/m2
04:30 54.7 °F 48.3 °F 30.11 in Calm     79 % 0.00 in 0 W/m2
04:35 54.7 °F 48.0 °F 30.11 in Calm     78 % 0.00 in 0 W/m2
04:40 54.7 °F 48.3 °F 30.11 in Calm     79 % 0.00 in 0 W/m2
04:45 54.9 °F 49.1 °F 30.11 in Calm     81 % 0.00 in 0 W/m2
04:50 54.7 °F 49.3 °F 30.11 in Calm     82 % 0.00 in 0 W/m2
04:55 54.5 °F 49.4 °F 30.11 in Calm   1.0 mph 83 % 0.00 in 0 W/m2
05:00 54.5 °F 49.4 °F 30.11 in Calm   1.0 mph 83 % 0.00 in 5 W/m2
05:05 54.3 °F 49.3 °F 30.10 in Calm     83 % 0.00 in 7 W/m2
05:10 54.3 °F 49.3 °F 30.10 in Calm   2.0 mph 83 % 0.00 in 7 W/m2
05:15 54.3 °F 49.3 °F 30.10 in Calm   2.0 mph 83 % 0.00 in 7 W/m2
05:20 54.3 °F 49.3 °F 30.10 in Calm   2.0 mph 83 % 0.00 in 9 W/m2
05:25 54.7 °F 49.6 °F 30.10 in Calm   2.0 mph 83 % 0.00 in 11 W/m2
05:26 54.7 °F 49.6 °F 30.10 in Calm   2.0 mph 83 % 0.00 in 12 W/m2
05:31 54.7 °F 49.3 °F 30.10 in Calm     82 % 0.00 in 16 W/m2
05:36 54.5 °F 49.1 °F 30.10 in Calm     82 % 0.00 in 19 W/m2
05:41 54.7 °F 49.3 °F 30.10 in Calm   2.0 mph 82 % 0.00 in 23 W/m2
05:46 54.7 °F 49.6 °F 30.10 in Calm   2.0 mph 83 % 0.00 in 32 W/m2
05:51 54.9 °F 49.8 °F 30.10 in Calm     83 % 0.00 in 37 W/m2
05:56 54.9 °F 49.5 °F 30.10 in Calm     82 % 0.00 in 30 W/m2
06:01 54.9 °F 49.5 °F 30.10 in Calm     82 % 0.00 in 28 W/m2
06:06 55.0 °F 49.3 °F 30.11 in Calm     81 % 0.00 in 25 W/m2
06:11 55.0 °F 49.3 °F 30.11 in Calm   1.0 mph 81 % 0.00 in 26 W/m2
06:16 55.2 °F 49.2 °F 30.11 in Calm   1.0 mph 80 % 0.00 in 33 W/m2
06:21 55.2 °F 48.8 °F 30.11 in Calm     79 % 0.00 in 35 W/m2
06:26 55.4 °F 49.0 °F 30.11 in Calm     79 % 0.00 in 39 W/m2
06:31 55.6 °F 49.2 °F 30.11 in Calm     79 % 0.00 in 40 W/m2
06:36 55.8 °F 49.0 °F 30.11 in Calm     78 % 0.00 in 44 W/m2
06:41 55.8 °F 49.3 °F 30.11 in Calm     79 % 0.00 in 40 W/m2
06:46 55.9 °F 49.5 °F 30.11 in Calm     79 % 0.00 in 30 W/m2
06:51 55.9 °F 49.9 °F 30.11 in Calm     80 % 0.00 in 33 W/m2
06:56 56.1 °F 50.0 °F 30.10 in Calm     80 % 0.00 in 47 W/m2
07:01 56.1 °F 49.7 °F 30.10 in Calm   1.0 mph 79 % 0.00 in 42 W/m2
07:06 56.1 °F 49.4 °F 30.11 in Calm   2.0 mph 78 % 0.00 in 37 W/m2
07:11 56.3 °F 49.5 °F 30.10 in SW 1.0 mph 6.0 mph 78 % 0.00 in 40 W/m2
07:16 56.5 °F 50.0 °F 30.11 in SW 1.0 mph 6.0 mph 79 % 0.00 in 47 W/m2
07:21 56.5 °F 50.0 °F 30.11 in Calm   2.0 mph 79 % 0.00 in 47 W/m2
07:26 56.5 °F 49.4 °F 30.11 in SSW 2.0 mph 10.0 mph 77 % 0.00 in 32 W/m2
07:31 56.7 °F 49.9 °F 30.11 in SSW 4.0 mph 10.0 mph 78 % 0.00 in 42 W/m2
07:37 56.7 °F 49.5 °F 30.11 in SSW 3.0 mph 7.0 mph 77 % 0.00 in 74 W/m2
07:42 56.7 °F 49.5 °F 30.11 in SSW 3.0 mph 7.0 mph 77 % 0.00 in 44 W/m2
07:47 56.7 °F 49.5 °F 30.11 in SSW 2.0 mph 6.0 mph 77 % 0.00 in 46 W/m2
07:52 56.7 °F 49.5 °F 30.11 in Calm   4.0 mph 77 % 0.00 in 54 W/m2
07:57 56.7 °F 49.9 °F 30.11 in Calm   2.0 mph 78 % 0.00 in 53 W/m2
08:02 56.8 °F 49.7 °F 30.10 in SSW 1.0 mph 5.0 mph 77 % 0.00 in 49 W/m2
08:03 56.8 °F 49.7 °F 30.10 in SSW 1.0 mph 5.0 mph 77 % 0.00 in 49 W/m2
08:08 56.7 °F 49.5 °F 30.10 in SSW 1.0 mph 5.0 mph 77 % 0.00 in 44 W/m2
08:13 56.7 °F 49.9 °F 30.11 in South 2.0 mph 5.0 mph 78 % 0.00 in 37 W/m2
08:18 56.7 °F 49.9 °F 30.11 in South 1.0 mph 5.0 mph 78 % 0.00 in 49 W/m2
08:23 56.7 °F 49.9 °F 30.10 in South 1.0 mph 4.0 mph 78 % 0.00 in 63 W/m2
08:28 56.8 °F 50.4 °F 30.10 in South 1.0 mph 4.0 mph 79 % 0.00 in 74 W/m2
08:33 56.8 °F 50.4 °F 30.10 in Calm   2.0 mph 79 % 0.00 in 83 W/m2
08:38 57.0 °F 50.2 °F 30.10 in Calm   2.0 mph 78 % 0.00 in 91 W/m2
08:43 57.0 °F 50.2 °F 30.10 in South 1.0 mph 4.0 mph 78 % 0.00 in 139 W/m2
08:49 57.2 °F 50.1 °F 30.10 in South 1.0 mph 4.0 mph 77 % 0.00 in 149 W/m2
08:54 57.6 °F 50.4 °F 30.10 in South 1.0 mph 3.0 mph 77 % 0.00 in 163 W/m2
08:59 57.7 °F 50.6 °F 30.10 in South 1.0 mph 5.0 mph 77 % 0.00 in 141 W/m2
09:04 57.9 °F 50.4 °F 30.10 in South 1.0 mph 5.0 mph 76 % 0.00 in 114 W/m2
09:09 58.1 °F 50.6 °F 30.10 in South 1.0 mph 3.0 mph 76 % 0.00 in 93 W/m2
09:14 58.3 °F 50.7 °F 30.10 in Calm   4.0 mph 76 % 0.00 in 91 W/m2
09:19 58.3 °F 51.1 °F 30.10 in Calm   4.0 mph 77 % 0.00 in 109 W/m2
09:24 58.5 °F 51.6 °F 30.10 in South 1.0 mph 8.0 mph 78 % 0.00 in 127 W/m2
09:29 58.6 °F 51.4 °F 30.10 in SSE 4.0 mph 8.0 mph 77 % 0.00 in 179 W/m2
09:34 58.8 °F 52.0 °F 30.10 in SSE 6.0 mph 11.0 mph 78 % 0.00 in 176 W/m2
09:39 58.8 °F 52.0 °F 30.10 in SSE 7.0 mph 11.0 mph 78 % 0.00 in 185 W/m2
09:44 58.8 °F 52.0 °F 30.10 in SSE 7.0 mph 11.0 mph 78 % 0.00 in 155 W/m2
09:49 59.0 °F 52.5 °F 30.10 in SSE 6.0 mph 10.0 mph 79 % 0.00 in 120 W/m2
09:54 59.0 °F 52.8 °F 30.10 in SSE 5.0 mph 10.0 mph 80 % 0.00 in 142 W/m2
09:59 59.2 °F 53.0 °F 30.10 in South 6.0 mph 10.0 mph 80 % 0.00 in 142 W/m2
10:04 59.2 °F 53.4 °F 30.10 in SSW 5.0 mph 10.0 mph 81 % 0.00 in 155 W/m2
10:09 59.2 °F 53.4 °F 30.09 in South 5.0 mph 10.0 mph 81 % 0.00 in 207 W/m2
10:14 59.2 °F 53.7 °F 30.09 in SSE 5.0 mph 10.0 mph 82 % 0.00 in 214 W/m2
10:19 59.2 °F 53.7 °F 30.09 in SSE 4.0 mph 7.0 mph 82 % 0.00 in 192 W/m2
10:24 59.4 °F 53.9 °F 30.09 in South 4.0 mph 9.0 mph 82 % 0.00 in 257 W/m2
10:29 59.7 °F 54.9 °F 30.09 in South 4.0 mph 10.0 mph 84 % 0.00 in 265 W/m2
10:34 60.1 °F 54.9 °F 30.09 in South 5.0 mph 10.0 mph 83 % 0.00 in 285 W/m2
10:39 60.3 °F 55.1 °F 30.09 in SSE 7.0 mph 11.0 mph 83 % 0.00 in 225 W/m2
10:44 60.3 °F 55.4 °F 30.09 in South 6.0 mph 11.0 mph 84 % 0.00 in 202 W/m2
10:49 60.4 °F 55.6 °F 30.09 in SSW 6.0 mph 11.0 mph 84 % 0.00 in 288 W/m2
10:54 60.6 °F 56.1 °F 30.08 in South 6.0 mph 10.0 mph 85 % 0.00 in 452 W/m2
10:59 61.2 °F 56.6 °F 30.08 in South 5.0 mph 10.0 mph 85 % 0.00 in 448 W/m2
11:04 61.7 °F 56.8 °F 30.08 in SSW 5.0 mph 9.0 mph 84 % 0.00 in 406 W/m2
11:10 62.1 °F 56.8 °F 30.08 in SSW 5.0 mph 9.0 mph 83 % 0.00 in 308 W/m2
11:15 62.1 °F 56.5 °F 30.08 in SSW 5.0 mph 9.0 mph 82 % 0.00 in 290 W/m2
11:20 62.2 °F 57.0 °F 30.08 in South 5.0 mph 8.0 mph 83 % 0.00 in 308 W/m2
11:25 62.4 °F 56.9 °F 30.08 in SSW 4.0 mph 8.0 mph 82 % 0.00 in 264 W/m2
11:30 62.6 °F 57.4 °F 30.08 in SSW 5.0 mph 8.0 mph 83 % 0.00 in 355 W/m2
11:35 63.0 °F 57.7 °F 30.08 in South 5.0 mph 10.0 mph 83 % 0.00 in 668 W/m2
11:40 63.3 °F 58.1 °F 30.07 in South 6.0 mph 10.0 mph 83 % 0.00 in 438 W/m2
11:45 63.9 °F 57.9 °F 30.08 in South 6.0 mph 10.0 mph 81 % 0.00 in 253 W/m2
11:50 63.7 °F 57.4 °F 30.07 in SSW 8.0 mph 14.0 mph 80 % 0.00 in 192 W/m2
11:55 63.3 °F 57.7 °F 30.07 in SSW 8.0 mph 14.0 mph 82 % 0.00 in 274 W/m2
12:00 63.5 °F 58.2 °F 30.07 in SSW 6.0 mph 12.0 mph 83 % 0.00 in 529 W/m2
12:05 63.7 °F 58.1 °F 30.07 in SSW 7.0 mph 13.0 mph 82 % 0.00 in 394 W/m2
12:10 63.9 °F 58.3 °F 30.07 in SSW 8.0 mph 13.0 mph 82 % 0.00 in 241 W/m2
12:15 63.9 °F 57.9 °F 30.07 in SSW 8.0 mph 12.0 mph 81 % 0.00 in 392 W/m2
12:20 63.9 °F 57.9 °F 30.07 in SSW 8.0 mph 12.0 mph 81 % 0.00 in 387 W/m2
12:25 64.2 °F 58.3 °F 30.07 in SSW 8.0 mph 14.0 mph 81 % 0.00 in 257 W/m2
12:30 64.2 °F 57.9 °F 30.07 in SSW 8.0 mph 14.0 mph 80 % 0.00 in 163 W/m2
12:35 64.2 °F 58.3 °F 30.07 in SSW 6.0 mph 12.0 mph 81 % 0.00 in 309 W/m2
12:40 64.2 °F 58.3 °F 30.07 in SSW 6.0 mph 9.0 mph 81 % 0.00 in 411 W/m2
12:45 64.6 °F 58.6 °F 30.06 in SSW 6.0 mph 9.0 mph 81 % 0.00 in 517 W/m2
12:50 64.9 °F 59.0 °F 30.06 in SSW 5.0 mph 9.0 mph 81 % 0.00 in 659 W/m2
12:51 65.1 °F 58.8 °F 30.06 in SSW 5.0 mph 9.0 mph 80 % 0.00 in 721 W/m2
12:56 65.7 °F 58.3 °F 30.06 in SSW 5.0 mph 12.0 mph 77 % 0.00 in 515 W/m2
13:01 66.2 °F 58.0 °F 30.06 in SW 6.0 mph 12.0 mph 75 % 0.00 in 455 W/m2
13:06 66.7 °F 58.2 °F 30.06 in SW 6.0 mph 10.0 mph 74 % 0.00 in 464 W/m2
13:11 66.9 °F 57.2 °F 30.05 in SW 7.0 mph 14.0 mph 71 % 0.00 in 388 W/m2
13:16 67.5 °F 57.7 °F 30.05 in SSW 7.0 mph 14.0 mph 71 % 0.00 in 281 W/m2
13:21 67.5 °F 57.3 °F 30.05 in SW 7.0 mph 12.0 mph 70 % 0.00 in 258 W/m2
13:26 67.6 °F 57.5 °F 30.05 in SW 7.0 mph 10.0 mph 70 % 0.00 in 436 W/m2
13:31 68.0 °F 56.6 °F 30.05 in WSW 8.0 mph 18.0 mph 67 % 0.00 in 301 W/m2
13:36 68.4 °F 57.4 °F 30.05 in WSW 10.0 mph 18.0 mph 68 % 0.00 in 338 W/m2
13:41 68.7 °F 57.7 °F 30.05 in West 9.0 mph 16.0 mph 68 % 0.00 in 288 W/m2
13:46 68.7 °F 58.1 °F 30.05 in WNW 8.0 mph 12.0 mph 69 % 0.00 in 422 W/m2
13:51 69.1 °F 58.5 °F 30.05 in WNW 7.0 mph 13.0 mph 69 % 0.00 in 471 W/m2
13:56 69.3 °F 58.2 °F 30.05 in West 8.0 mph 14.0 mph 68 % 0.00 in 642 W/m2
14:01 69.6 °F 57.8 °F 30.06 in West 7.0 mph 14.0 mph 66 % 0.00 in 413 W/m2
14:06 69.6 °F 57.3 °F 30.05 in West 7.0 mph 12.0 mph 65 % 0.00 in 345 W/m2
14:11 69.4 °F 56.7 °F 30.05 in West 9.0 mph 16.0 mph 64 % 0.00 in 290 W/m2
14:16 69.1 °F 57.2 °F 30.05 in West 9.0 mph 16.0 mph 66 % 0.00 in 265 W/m2
14:22 68.7 °F 57.3 °F 30.05 in West 8.0 mph 13.0 mph 67 % 0.00 in 260 W/m2
14:27 68.5 °F 56.7 °F 30.05 in West 8.0 mph 15.0 mph 66 % 0.00 in 279 W/m2
14:32 68.7 °F 56.9 °F 30.05 in West 8.0 mph 15.0 mph 66 % 0.00 in 278 W/m2
14:37 68.7 °F 56.9 °F 30.05 in West 8.0 mph 13.0 mph 66 % 0.00 in 306 W/m2
14:42 68.7 °F 56.9 °F 30.05 in WSW 8.0 mph 13.0 mph 66 % 0.00 in 220 W/m2
14:47 68.7 °F 57.3 °F 30.05 in WSW 7.0 mph 12.0 mph 67 % 0.00 in 176 W/m2
14:52 68.7 °F 57.3 °F 30.05 in WSW 7.0 mph 13.0 mph 67 % 0.00 in 93 W/m2
14:57 68.4 °F 57.4 °F 30.05 in WSW 10.0 mph 20.0 mph 68 % 0.00 in 105 W/m2
15:07 67.3 °F 57.6 °F 30.05 in WSW 9.0 mph 16.0 mph 71 % 0.00 in 179 W/m2
15:12 67.3 °F 57.2 °F 30.05 in WSW 8.0 mph 14.0 mph 70 % 0.00 in 202 W/m2
15:17 67.3 °F 57.2 °F 30.05 in West 9.0 mph 15.0 mph 70 % 0.00 in 260 W/m2
15:22 67.5 °F 57.3 °F 30.05 in West 9.0 mph 15.0 mph 70 % 0.00 in 276 W/m2
15:27 67.6 °F 57.9 °F 30.05 in West 9.0 mph 15.0 mph 71 % 0.00 in 297 W/m2
15:32 67.8 °F 58.1 °F 30.04 in West 9.0 mph 15.0 mph 71 % 0.00 in 265 W/m2
15:37 67.6 °F 57.9 °F 30.04 in West 9.0 mph 15.0 mph 71 % 0.00 in 265 W/m2
15:42 67.3 °F 57.6 °F 30.04 in WSW 10.0 mph 18.0 mph 71 % 0.00 in 260 W/m2
15:47 67.1 °F 57.4 °F 30.04 in West 10.0 mph 19.0 mph 71 % 0.00 in 265 W/m2
15:52 67.1 °F 57.8 °F 30.04 in West 9.0 mph 19.0 mph 72 % 0.00 in 234 W/m2
15:57 67.1 °F 57.4 °F 30.04 in West 9.0 mph 16.0 mph 71 % 0.00 in 185 W/m2
16:02 66.9 °F 57.6 °F 30.04 in West 10.0 mph 16.0 mph 72 % 0.00 in 193 W/m2
16:07 66.9 °F 58.0 °F 30.04 in West 9.0 mph 14.0 mph 73 % 0.00 in 213 W/m2
16:12 66.9 °F 58.4 °F 30.04 in West 9.0 mph 16.0 mph 74 % 0.00 in 192 W/m2
16:17 66.7 °F 57.8 °F 30.05 in West 11.0 mph 20.0 mph 73 % 0.00 in 185 W/m2
16:22 66.6 °F 58.0 °F 30.05 in West 11.0 mph 20.0 mph 74 % 0.00 in 163 W/m2
16:27 66.4 °F 57.8 °F 30.05 in West 10.0 mph 16.0 mph 74 % 0.00 in 192 W/m2
16:32 66.4 °F 57.8 °F 30.05 in West 9.0 mph 16.0 mph 74 % 0.00 in 186 W/m2
16:37 66.4 °F 57.8 °F 30.04 in West 9.0 mph 16.0 mph 74 % 0.00 in 214 W/m2
16:42 66.4 °F 57.8 °F 30.05 in West 9.0 mph 16.0 mph 74 % 0.00 in 243 W/m2
16:47 66.6 °F 57.6 °F 30.04 in West 10.0 mph 20.0 mph 73 % 0.00 in 230 W/m2
16:52 66.7 °F 57.4 °F 30.04 in West 11.0 mph 20.0 mph 72 % 0.00 in 186 W/m2
16:57 66.6 °F 57.6 °F 30.05 in West 11.0 mph 20.0 mph 73 % 0.00 in 220 W/m2
17:02 66.4 °F 57.5 °F 30.05 in West 11.0 mph 20.0 mph 73 % 0.00 in 214 W/m2
17:08 66.4 °F 57.8 °F 30.04 in WNW 10.0 mph 20.0 mph 74 % 0.00 in 160 W/m2
17:13 66.4 °F 57.8 °F 30.04 in West 10.0 mph 19.0 mph 74 % 0.00 in 104 W/m2
17:18 66.0 °F 57.5 °F 30.04 in WNW 10.0 mph 19.0 mph 74 % 0.00 in 114 W/m2
17:23 66.0 °F 57.1 °F 30.04 in West 9.0 mph 14.0 mph 73 % 0.00 in 118 W/m2
17:28 65.8 °F 57.3 °F 30.04 in West 9.0 mph 18.0 mph 74 % 0.00 in 121 W/m2
17:33 65.8 °F 57.3 °F 30.04 in West 9.0 mph 18.0 mph 74 % 0.00 in 151 W/m2
17:38 65.8 °F 57.3 °F 30.04 in West 9.0 mph 16.0 mph 74 % 0.00 in 167 W/m2
17:43 66.0 °F 57.5 °F 30.04 in West 9.0 mph 16.0 mph 74 % 0.00 in 142 W/m2
17:44 66.0 °F 57.5 °F 30.04 in West 9.0 mph 16.0 mph 74 % 0.00 in 141 W/m2
17:49 66.0 °F 57.5 °F 30.04 in West 9.0 mph 18.0 mph 74 % 0.00 in 142 W/m2
17:54 66.0 °F 57.1 °F 30.04 in West 10.0 mph 18.0 mph 73 % 0.00 in 137 W/m2
17:59 66.0 °F 57.5 °F 30.04 in West 10.0 mph 16.0 mph 74 % 0.00 in 125 W/m2
18:04 66.0 °F 57.5 °F 30.04 in West 9.0 mph 14.0 mph 74 % 0.00 in 213 W/m2
18:09 66.0 °F 57.1 °F 30.04 in West 10.0 mph 19.0 mph 73 % 0.00 in 206 W/m2
18:14 66.0 °F 57.1 °F 30.04 in West 10.0 mph 19.0 mph 73 % 0.00 in 169 W/m2
18:19 66.0 °F 57.1 °F 30.04 in West 11.0 mph 20.0 mph 73 % 0.00 in 153 W/m2
18:24 65.8 °F 56.9 °F 30.04 in West 12.0 mph 20.0 mph 73 % 0.00 in 190 W/m2
18:29 65.7 °F 56.4 °F 30.04 in West 11.0 mph 18.0 mph 72 % 0.00 in 183 W/m2
18:34 65.7 °F 56.8 °F 30.04 in West 10.0 mph 18.0 mph 73 % 0.00 in 176 W/m2
18:39 65.7 °F 56.8 °F 30.04 in West 9.0 mph 16.0 mph 73 % 0.00 in 225 W/m2
18:44 66.4 °F 57.5 °F 30.03 in WNW 9.0 mph 15.0 mph 73 % 0.00 in 429 W/m2
18:49 66.7 °F 57.0 °F 30.03 in WNW 8.0 mph 15.0 mph 71 % 0.00 in 130 W/m2
18:54 66.7 °F 56.2 °F 30.03 in West 8.0 mph 14.0 mph 69 % 0.00 in 116 W/m2
19:00 66.6 °F 56.5 °F 30.03 in West 8.0 mph 14.0 mph 70 % 0.00 in 139 W/m2
19:05 66.4 °F 56.3 °F 30.03 in WNW 7.0 mph 13.0 mph 70 % 0.00 in 123 W/m2
19:10 66.2 °F 56.1 °F 30.03 in WNW 8.0 mph 13.0 mph 70 % 0.00 in 77 W/m2
19:15 66.0 °F 56.0 °F 30.03 in WNW 8.0 mph 13.0 mph 70 % 0.00 in 49 W/m2
19:20 65.8 °F 55.8 °F 30.03 in West 8.0 mph 18.0 mph 70 % 0.00 in 49 W/m2
19:25 65.8 °F 55.8 °F 30.03 in West 7.0 mph 18.0 mph 70 % 0.00 in 81 W/m2
19:30 65.8 °F 56.2 °F 30.03 in West 5.0 mph 11.0 mph 71 % 0.00 in 100 W/m2
19:31 65.8 °F 56.2 °F 30.04 in West 5.0 mph 12.0 mph 71 % 0.00 in 107 W/m2
19:36 65.8 °F 56.2 °F 30.03 in West 6.0 mph 12.0 mph 71 % 0.00 in 74 W/m2
19:41 65.8 °F 56.2 °F 30.04 in West 6.0 mph 11.0 mph 71 % 0.00 in 77 W/m2
19:46 65.7 °F 56.0 °F 30.04 in West 7.0 mph 11.0 mph 71 % 0.00 in 58 W/m2
19:51 65.7 °F 56.0 °F 30.03 in West 6.0 mph 10.0 mph 71 % 0.00 in 47 W/m2
19:56 65.7 °F 56.0 °F 30.04 in West 5.0 mph 10.0 mph 71 % 0.00 in 58 W/m2
20:01 65.5 °F 56.2 °F 30.04 in West 4.0 mph 9.0 mph 72 % 0.00 in 69 W/m2
20:11 65.7 °F 56.4 °F 30.04 in West 2.0 mph 6.0 mph 72 % 0.00 in 77 W/m2
20:16 65.7 °F 56.4 °F 30.04 in WNW 4.0 mph 8.0 mph 72 % 0.00 in 86 W/m2
20:21 65.7 °F 56.4 °F 30.04 in WNW 5.0 mph 8.0 mph 72 % 0.00 in 84 W/m2
20:26 65.8 °F 56.6 °F 30.04 in WNW 4.0 mph 7.0 mph 72 % 0.00 in 74 W/m2
20:31 65.8 °F 56.2 °F 30.04 in West 4.0 mph 7.0 mph 71 % 0.00 in 69 W/m2
20:36 65.8 °F 56.6 °F 30.04 in West 5.0 mph 7.0 mph 72 % 0.00 in 72 W/m2
20:41 65.8 °F 56.6 °F 30.04 in WNW 4.0 mph 8.0 mph 72 % 0.00 in 69 W/m2
20:46 65.8 °F 56.6 °F 30.04 in West 4.0 mph 8.0 mph 72 % 0.00 in 72 W/m2
20:51 65.8 °F 56.6 °F 30.04 in West 4.0 mph 9.0 mph 72 % 0.00 in 54 W/m2
20:57 65.7 °F 56.4 °F 30.05 in WNW 5.0 mph 9.0 mph 72 % 0.00 in 40 W/m2
21:02 65.5 °F 56.6 °F 30.05 in NW 4.0 mph 7.0 mph 73 % 0.00 in 26 W/m2
21:07 65.5 °F 56.6 °F 30.05 in NW 3.0 mph 8.0 mph 73 % 0.00 in 19 W/m2
21:12 65.1 °F 56.6 °F 30.05 in NW 3.0 mph 8.0 mph 74 % 0.00 in 18 W/m2
21:17 64.9 °F 56.5 °F 30.05 in NW 4.0 mph 8.0 mph 74 % 0.00 in 16 W/m2
21:22 64.8 °F 56.6 °F 30.05 in WNW 4.0 mph 8.0 mph 75 % 0.00 in 12 W/m2
21:27 64.4 °F 56.3 °F 30.05 in WNW 4.0 mph 8.0 mph 75 % 0.00 in 9 W/m2
21:32 64.2 °F 56.5 °F 30.05 in WNW 3.0 mph 7.0 mph 76 % 0.00 in 5 W/m2
21:37 64.0 °F 56.7 °F 30.05 in WNW 3.0 mph 6.0 mph 77 % 0.00 in 0 W/m2
21:42 63.9 °F 56.5 °F 30.06 in WNW 3.0 mph 6.0 mph 77 % 0.00 in 0 W/m2
21:47 63.7 °F 56.3 °F 30.06 in NW 4.0 mph 6.0 mph 77 % 0.00 in 0 W/m2
21:52 63.3 °F 56.3 °F 30.06 in NW 4.0 mph 7.0 mph 78 % 0.00 in 0 W/m2
21:57 63.1 °F 56.2 °F 30.06 in WNW 3.0 mph 7.0 mph 78 % 0.00 in 0 W/m2
22:02 63.1 °F 56.2 °F 30.06 in West 3.0 mph 7.0 mph 78 % 0.00 in 0 W/m2
22:07 63.1 °F 56.2 °F 30.06 in West 1.0 mph 5.0 mph 78 % 0.00 in 0 W/m2
22:12 63.0 °F 56.3 °F 30.06 in Calm   2.0 mph 79 % 0.00 in 0 W/m2
22:17 63.0 °F 56.3 °F 30.06 in West 1.0 mph 4.0 mph 79 % 0.00 in 0 W/m2
22:22 62.8 °F 56.2 °F 30.06 in West 2.0 mph 5.0 mph 79 % 0.00 in 0 W/m2
22:27 62.8 °F 56.5 °F 30.06 in SW 3.0 mph 6.0 mph 80 % 0.00 in 0 W/m2
22:32 62.4 °F 55.8 °F 30.06 in SSW 3.0 mph 6.0 mph 79 % 0.00 in 0 W/m2
22:37 62.2 °F 56.0 °F 30.06 in SSW 2.0 mph 6.0 mph 80 % 0.00 in 0 W/m2
22:42 62.2 °F 56.0 °F 30.06 in SW 3.0 mph 5.0 mph 80 % 0.00 in 0 W/m2
22:47 62.1 °F 55.5 °F 30.06 in SW 3.0 mph 6.0 mph 79 % 0.00 in 0 W/m2
22:52 61.9 °F 55.6 °F 30.06 in WSW 3.0 mph 6.0 mph 80 % 0.00 in 0 W/m2
22:57 61.9 °F 55.6 °F 30.07 in WSW 2.0 mph 6.0 mph 80 % 0.00 in 0 W/m2
23:02 61.5 °F 55.3 °F 30.07 in WSW 1.0 mph 6.0 mph 80 % 0.00 in 0 W/m2
23:07 61.3 °F 55.1 °F 30.07 in Calm   3.0 mph 80 % 0.00 in 0 W/m2
23:12 61.0 °F 55.1 °F 30.07 in Calm   1.0 mph 81 % 0.00 in 0 W/m2
23:17 60.6 °F 54.8 °F 30.07 in Calm   2.0 mph 81 % 0.00 in 0 W/m2
23:22 60.4 °F 54.9 °F 30.07 in Calm   2.0 mph 82 % 0.00 in 0 W/m2
23:27 60.1 °F 54.6 °F 30.07 in Calm     82 % 0.00 in 0 W/m2
23:32 59.7 °F 54.5 °F 30.07 in Calm     83 % 0.00 in 0 W/m2
23:38 59.5 °F 54.4 °F 30.07 in Calm   2.0 mph 83 % 0.00 in 0 W/m2
23:43 59.4 °F 54.5 °F 30.07 in Calm   2.0 mph 84 % 0.00 in 0 W/m2
23:48 59.2 °F 54.3 °F 30.07 in Calm   2.0 mph 84 % 0.00 in 0 W/m2
23:53 59.0 °F 54.2 °F 30.07 in Calm   2.0 mph 84 % 0.00 in 0 W/m2
23:58 58.8 °F 54.3 °F 30.06 in Calm   1.0 mph 85 % 0.00 in 0 W/m2
Delerius-Weather
Compliments of Weather Underground - 2.25 mb

Data updates at regular intervals.